PWSweather.com
Personal Weather Stations
Station Observations
KC1FX
To The East Of Littleton, Nh, Bethlehem, NH 03574

To The East Of Littleton, NhBethlehem, NH 03574

Lat: 44.2755, Lon: -71.7128

Elevation: 1279

Station Type: Davis Weather Monitor II

http://kc1fx-weather.info

Latest ConditionsUpdated 11:40:00 PM EDT Sunday, May 19, 2019
Currently Today's Max Today's Min Today's Average
Temperature 61.0°F16.1°C 76.5°F24.7°C 46.4°F8.0°C 57.8°F14.3°C
Dew Point 58.4°F14.7°C 64.1°F17.8°C 42.2°F5.7°C 51.0°F10.6°C
Winds 3.0 mph SSE4.8 kmh SSE 9.0 mph -14.5 kmh - - 1.6 mph 2.6 kmh
Wind Gusts 11.0 mph17.7 kmh 18.0 mph29.0 kmh - -
Humidity 91% 97% 60% 79%
Pressure 29.82 in1009.8 mb 30.06 in1017.9 mb 29.82 in1009.8 mb -
Precipitation - 0.51 in13.0 mm - -
Hour Temp Dew Point Humidity Winds Wind Gusts Pressure Precip Precip Rate Daily Precip Total
11:40 PM 61.0°F16.1°C 58.4°F14.7°C 91% 3.0 mph SSE4.8 kmh SSE 11.0 mph17.7 kmh 29.82 in1009.8 mb 0.00 in0.0 mm 0.00 in0.0 mm 0.51 in13.0 mm
11:30 PM 61.0°F16.1°C 58.0°F14.4°C 90% 6.0 mph SSE9.7 kmh SSE 14.0 mph22.5 kmh 29.82 in1009.8 mb 0.02 in0.5 mm 0.00 in0.0 mm 0.51 in13.0 mm
11:20 PM 60.8°F16.0°C 58.2°F14.6°C 91% 6.0 mph SSE9.7 kmh SSE 15.0 mph24.1 kmh 29.82 in1009.8 mb 0.03 in0.8 mm 0.00 in0.0 mm 0.51 in13.0 mm
11:10 PM 60.6°F15.9°C 58.3°F14.6°C 92% 1.0 mph SSE1.6 kmh SSE 7.0 mph11.3 kmh 29.83 in1010.2 mb 0.04 in1.0 mm 0.00 in0.0 mm 0.51 in13.0 mm
11:00 PM 60.7°F15.9°C 58.4°F14.7°C 92% 5.0 mph SE8.0 kmh SE 10.0 mph16.1 kmh 29.83 in1010.2 mb 0.07 in1.8 mm 0.00 in0.0 mm 0.51 in13.0 mm
10:50 PM 60.7°F15.9°C 58.4°F14.7°C 92% 6.0 mph SE9.7 kmh SE 12.0 mph19.3 kmh 29.83 in1010.2 mb 0.12 in3.0 mm 0.00 in0.0 mm 0.51 in13.0 mm
10:40 PM 60.9°F16.1°C 59.9°F15.5°C 97% 5.0 mph SE8.0 kmh SE 8.0 mph12.9 kmh 29.85 in1010.8 mb 0.13 in3.3 mm 0.00 in0.0 mm 0.50 in12.7 mm
10:30 PM 61.2°F16.2°C 59.6°F15.3°C 94% 3.0 mph SSE4.8 kmh SSE 10.0 mph16.1 kmh 29.84 in1010.5 mb 0.14 in3.6 mm 0.00 in0.0 mm 0.49 in12.4 mm
10:20 PM 61.2°F16.2°C 59.6°F15.3°C 94% 6.0 mph SE9.7 kmh SE 16.0 mph25.7 kmh 29.85 in1010.8 mb 0.17 in4.3 mm 0.00 in0.0 mm 0.48 in12.2 mm
10:10 PM 60.9°F16.1°C 59.3°F15.2°C 94% 8.0 mph SSE12.9 kmh SSE 18.0 mph29.0 kmh 29.86 in1011.2 mb 0.19 in4.8 mm 0.00 in0.0 mm 0.46 in11.7 mm
10:00 PM 61.3°F16.3°C 58.7°F14.8°C 91% 8.0 mph SSE12.9 kmh SSE 16.0 mph25.7 kmh 29.86 in1011.2 mb 0.19 in4.8 mm 0.02 in0.5 mm 0.43 in10.9 mm
09:50 PM 61.5°F16.4°C 58.5°F14.7°C 90% 8.0 mph SSE12.9 kmh SSE 12.0 mph19.3 kmh 29.87 in1011.5 mb 0.17 in4.3 mm 0.00 in0.0 mm 0.38 in9.7 mm
09:40 PM 61.4°F16.3°C 58.8°F14.9°C 91% 6.0 mph SSE9.7 kmh SSE 13.0 mph20.9 kmh 29.87 in1011.5 mb 0.17 in4.3 mm 0.06 in1.5 mm 0.36 in9.1 mm
09:30 PM 61.5°F16.4°C 58.5°F14.7°C 90% 8.0 mph SSE12.9 kmh SSE 15.0 mph24.1 kmh 29.86 in1011.2 mb 0.16 in4.1 mm 0.24 in6.1 mm 0.34 in8.6 mm
09:20 PM 61.5°F16.4°C 58.5°F14.7°C 90% 8.0 mph S12.9 kmh S 17.0 mph27.4 kmh 29.86 in1011.2 mb 0.12 in3.0 mm 0.18 in4.6 mm 0.30 in7.6 mm
09:10 PM 61.6°F16.4°C 58.3°F14.6°C 89% 7.0 mph S11.3 kmh S 15.0 mph24.1 kmh 29.84 in1010.5 mb 0.09 in2.3 mm 0.24 in6.1 mm 0.27 in6.9 mm
09:00 PM 61.7°F16.5°C 58.4°F14.7°C 89% 9.0 mph SSE14.5 kmh SSE 18.0 mph29.0 kmh 29.84 in1010.5 mb 0.05 in1.3 mm 0.02 in0.5 mm 0.23 in5.8 mm
08:50 PM 62.1°F16.7°C 58.8°F14.9°C 89% 4.0 mph SSE6.4 kmh SSE 11.0 mph17.7 kmh 29.85 in1010.8 mb 0.03 in0.8 mm 0.18 in4.6 mm 0.21 in5.3 mm
08:40 PM 62.2°F16.8°C 58.9°F14.9°C 89% 1.0 mph SW1.6 kmh SW 9.0 mph14.5 kmh 29.85 in1010.8 mb 0.00 in0.0 mm 0.00 in0.0 mm 0.18 in4.6 mm
08:30 PM 62.4°F16.9°C 58.7°F14.8°C 88% 3.0 mph SW4.8 kmh SW 8.0 mph12.9 kmh 29.86 in1011.2 mb 0.00 in0.0 mm 0.00 in0.0 mm 0.18 in4.6 mm
08:20 PM 62.6°F17.0°C 58.6°F14.8°C 87% 3.0 mph S4.8 kmh S 8.0 mph12.9 kmh 29.86 in1011.2 mb 0.02 in0.5 mm 0.00 in0.0 mm 0.18 in4.6 mm
08:10 PM 62.5°F16.9°C 58.8°F14.9°C 88% 3.0 mph S4.8 kmh S 10.0 mph16.1 kmh 29.86 in1011.2 mb 0.10 in2.5 mm 0.00 in0.0 mm 0.18 in4.6 mm
08:00 PM 62.5°F16.9°C 59.2°F15.1°C 89% Calm Calm 6.0 mph9.7 kmh 29.87 in1011.5 mb 0.14 in3.6 mm 0.00 in0.0 mm 0.18 in4.6 mm
07:50 PM 62.6°F17.0°C 59.3°F15.2°C 89% Calm Calm 7.0 mph11.3 kmh 29.86 in1011.2 mb 0.16 in4.1 mm 0.00 in0.0 mm 0.18 in4.6 mm
07:40 PM 62.7°F17.1°C 60.7°F15.9°C 93% 5.0 mph SE8.0 kmh SE 9.0 mph14.5 kmh 29.86 in1011.2 mb 0.18 in4.6 mm 0.00 in0.0 mm 0.18 in4.6 mm
07:30 PM 63.1°F17.3°C 60.5°F15.8°C 91% 3.0 mph SE4.8 kmh SE 9.0 mph14.5 kmh 29.86 in1011.2 mb 0.18 in4.6 mm 0.24 in6.1 mm 0.18 in4.6 mm
07:20 PM 64.2°F17.9°C 62.2°F16.8°C 93% Calm Calm 3.0 mph4.8 kmh 29.88 in1011.9 mb 0.14 in3.6 mm 0.42 in10.7 mm 0.14 in3.6 mm
07:10 PM 65.5°F18.6°C 62.1°F16.7°C 89% Calm Calm 1.0 mph1.6 kmh 29.88 in1011.9 mb 0.07 in1.8 mm 0.24 in6.1 mm 0.07 in1.8 mm
07:00 PM 66.5°F19.2°C 61.3°F16.3°C 83% Calm Calm 8.0 mph12.9 kmh 29.86 in1011.2 mb 0.03 in0.8 mm 0.02 in0.5 mm 0.03 in0.8 mm
06:50 PM 68.0°F20.0°C 58.8°F14.9°C 72% 2.0 mph SE3.2 kmh SE 14.0 mph22.5 kmh 29.86 in1011.2 mb 0.01 in0.3 mm 0.06 in1.5 mm 0.01 in0.3 mm
06:40 PM 68.4°F20.2°C 57.9°F14.4°C 69% 3.0 mph S4.8 kmh S 10.0 mph16.1 kmh 29.84 in1010.5 mb 0.00 in0.0 mm 0.00 in0.0 mm 0.00 in0.0 mm
06:30 PM 68.8°F20.4°C 57.8°F14.3°C 68% 5.0 mph SE8.0 kmh SE 13.0 mph20.9 kmh 29.84 in1010.5 mb 0.00 in0.0 mm 0.00 in0.0 mm 0.00 in0.0 mm
06:20 PM 69.3°F20.7°C 57.8°F14.3°C 67% 6.0 mph SSE9.7 kmh SSE 13.0 mph20.9 kmh 29.83 in1010.2 mb 0.00 in0.0 mm 0.00 in0.0 mm 0.00 in0.0 mm
06:10 PM 70.3°F21.3°C 57.9°F14.4°C 65% 4.0 mph S6.4 kmh S 12.0 mph19.3 kmh 29.83 in1010.2 mb 0.00 in0.0 mm 0.00 in0.0 mm 0.00 in0.0 mm
06:00 PM 71.1°F21.7°C 58.1°F14.5°C 64% 6.0 mph S9.7 kmh S 12.0 mph19.3 kmh 29.84 in1010.5 mb 0.00 in0.0 mm 0.00 in0.0 mm 0.00 in0.0 mm
05:50 PM 71.6°F22.0°C 58.1°F14.5°C 63% 3.0 mph SSW4.8 kmh SSW 10.0 mph16.1 kmh 29.83 in1010.2 mb 0.00 in0.0 mm 0.00 in0.0 mm 0.00 in0.0 mm
05:40 PM 72.0°F22.2°C 58.0°F14.4°C 61% 5.0 mph SE8.0 kmh SE 14.0 mph22.5 kmh 29.84 in1010.5 mb 0.00 in0.0 mm 0.00 in0.0 mm 0.00 in0.0 mm
05:30 PM 73.0°F22.8°C 58.5°F14.7°C 60% 9.0 mph SE14.5 kmh SE 14.0 mph22.5 kmh 29.85 in1010.8 mb 0.00 in0.0 mm 0.00 in0.0 mm 0.00 in0.0 mm
05:20 PM 73.8°F23.2°C 59.7°F15.4°C 61% 4.0 mph SSE6.4 kmh SSE 12.0 mph19.3 kmh 29.85 in1010.8 mb 0.00 in0.0 mm 0.00 in0.0 mm 0.00 in0.0 mm
05:10 PM 73.9°F23.3°C 59.8°F15.4°C 61% 7.0 mph SE11.3 kmh SE 14.0 mph22.5 kmh 29.84 in1010.5 mb 0.00 in0.0 mm 0.00 in0.0 mm 0.00 in0.0 mm
05:00 PM 74.7°F23.7°C 60.0°F15.6°C 60% 6.0 mph S9.7 kmh S 13.0 mph20.9 kmh 29.84 in1010.5 mb 0.00 in0.0 mm 0.00 in0.0 mm 0.00 in0.0 mm
04:50 PM 74.8°F23.8°C 61.2°F16.2°C 63% 2.0 mph SSW3.2 kmh SSW 8.0 mph12.9 kmh 29.84 in1010.5 mb 0.00 in0.0 mm 0.00 in0.0 mm 0.00 in0.0 mm
04:40 PM 74.4°F23.6°C 59.8°F15.4°C 60% 5.0 mph SE8.0 kmh SE 11.0 mph17.7 kmh 29.84 in1010.5 mb 0.00 in0.0 mm 0.00 in0.0 mm 0.00 in0.0 mm
04:30 PM 75.2°F24.0°C 60.5°F15.8°C 60% 8.0 mph SE12.9 kmh SE 12.0 mph19.3 kmh 29.84 in1010.5 mb 0.00 in0.0 mm 0.00 in0.0 mm 0.00 in0.0 mm
04:20 PM 76.5°F24.7°C 61.7°F16.5°C 60% 1.0 mph S1.6 kmh S 5.0 mph8.0 kmh 29.85 in1010.8 mb 0.00 in0.0 mm 0.00 in0.0 mm 0.00 in0.0 mm
04:10 PM 76.4°F24.7°C 64.1°F17.8°C 66% Calm Calm 3.0 mph4.8 kmh 29.85 in1010.8 mb 0.00 in0.0 mm 0.00 in0.0 mm 0.00 in0.0 mm
04:00 PM 76.0°F24.4°C 63.3°F17.4°C 65% 1.0 mph WSW1.6 kmh WSW 3.0 mph4.8 kmh 29.86 in1011.2 mb 0.00 in0.0 mm 0.00 in0.0 mm 0.00 in0.0 mm
03:50 PM 75.6°F24.2°C 62.4°F16.9°C 64% Calm Calm 7.0 mph11.3 kmh 29.87 in1011.5 mb 0.00 in0.0 mm 0.00 in0.0 mm 0.00 in0.0 mm
03:40 PM 75.5°F24.2°C 62.8°F17.1°C 65% 2.0 mph SW3.2 kmh SW 6.0 mph9.7 kmh 29.87 in1011.5 mb 0.00 in0.0 mm 0.00 in0.0 mm 0.00 in0.0 mm
03:30 PM 74.9°F23.8°C 62.2°F16.8°C 65% 1.0 mph NW1.6 kmh NW 4.0 mph6.4 kmh 29.88 in1011.9 mb 0.00 in0.0 mm 0.00 in0.0 mm 0.00 in0.0 mm
03:20 PM 74.5°F23.6°C 61.4°F16.3°C 64% 1.0 mph NW1.6 kmh NW 5.0 mph8.0 kmh 29.88 in1011.9 mb 0.00 in0.0 mm 0.00 in0.0 mm 0.00 in0.0 mm
03:10 PM 74.0°F23.3°C 60.9°F16.1°C 64% Calm Calm 5.0 mph8.0 kmh 29.88 in1011.9 mb 0.00 in0.0 mm 0.00 in0.0 mm 0.00 in0.0 mm
03:00 PM 73.3°F22.9°C 60.7°F15.9°C 65% Calm Calm 7.0 mph11.3 kmh 29.89 in1012.2 mb 0.00 in0.0 mm 0.00 in0.0 mm 0.00 in0.0 mm
02:50 PM 73.0°F22.8°C 60.4°F15.8°C 65% 1.0 mph WNW1.6 kmh WNW 9.0 mph14.5 kmh 29.89 in1012.2 mb 0.00 in0.0 mm 0.00 in0.0 mm 0.00 in0.0 mm
02:40 PM 72.1°F22.3°C 59.6°F15.3°C 65% 2.0 mph SW3.2 kmh SW 10.0 mph16.1 kmh 29.90 in1012.5 mb 0.00 in0.0 mm 0.00 in0.0 mm 0.00 in0.0 mm
02:30 PM 71.0°F21.7°C 59.0°F15.0°C 66% 2.0 mph SW3.2 kmh SW 9.0 mph14.5 kmh 29.90 in1012.5 mb 0.00 in0.0 mm 0.00 in0.0 mm 0.00 in0.0 mm
02:20 PM 68.9°F20.5°C 58.8°F14.9°C 70% 1.0 mph S1.6 kmh S 6.0 mph9.7 kmh 29.92 in1013.2 mb 0.00 in0.0 mm 0.00 in0.0 mm 0.00 in0.0 mm
02:10 PM 67.4°F19.7°C 55.1°F12.8°C 65% 3.0 mph S4.8 kmh S 7.0 mph11.3 kmh 29.91 in1012.9 mb 0.00 in0.0 mm 0.00 in0.0 mm 0.00 in0.0 mm
02:00 PM 67.1°F19.5°C 54.8°F12.7°C 65% 1.0 mph NW1.6 kmh NW 7.0 mph11.3 kmh 29.92 in1013.2 mb 0.00 in0.0 mm 0.00 in0.0 mm 0.00 in0.0 mm
01:50 PM 67.5°F19.7°C 54.7°F12.6°C 64% 2.0 mph SSW3.2 kmh SSW 5.0 mph8.0 kmh 29.91 in1012.9 mb 0.00 in0.0 mm 0.00 in0.0 mm 0.00 in0.0 mm
01:40 PM 67.0°F19.4°C 55.2°F12.9°C 66% 1.0 mph SSW1.6 kmh SSW 4.0 mph6.4 kmh 29.92 in1013.2 mb 0.00 in0.0 mm 0.00 in0.0 mm 0.00 in0.0 mm
01:30 PM 65.8°F18.8°C 52.2°F11.2°C 61% Calm Calm 5.0 mph8.0 kmh 29.92 in1013.2 mb 0.00 in0.0 mm 0.00 in0.0 mm 0.00 in0.0 mm
01:20 PM 65.3°F18.5°C 52.2°F11.2°C 63% 1.0 mph 1.6 kmh 5.0 mph8.0 kmh 29.92 in1013.2 mb 0.00 in0.0 mm 0.00 in0.0 mm 0.00 in0.0 mm
01:10 PM 65.2°F18.4°C 52.1°F11.2°C 63% 1.0 mph N1.6 kmh N 5.0 mph8.0 kmh 29.93 in1013.5 mb 0.00 in0.0 mm 0.00 in0.0 mm 0.00 in0.0 mm
01:00 PM 64.5°F18.1°C 50.5°F10.3°C 60% Calm Calm 3.0 mph4.8 kmh 29.93 in1013.5 mb 0.00 in0.0 mm 0.00 in0.0 mm 0.00 in0.0 mm
12:50 PM 63.5°F17.5°C 50.0°F10.0°C 61% 1.0 mph SW1.6 kmh SW 4.0 mph6.4 kmh 29.93 in1013.5 mb 0.00 in0.0 mm 0.00 in0.0 mm 0.00 in0.0 mm
12:40 PM 62.1°F16.7°C 51.0°F10.6°C 67% Calm Calm 5.0 mph8.0 kmh 29.94 in1013.9 mb 0.00 in0.0 mm 0.00 in0.0 mm 0.00 in0.0 mm
12:30 PM 61.5°F16.4°C 50.0°F10.0°C 66% 2.0 mph N3.2 kmh N 6.0 mph9.7 kmh 29.93 in1013.5 mb 0.00 in0.0 mm 0.00 in0.0 mm 0.00 in0.0 mm
12:20 PM 59.9°F15.5°C 46.6°F8.1°C 61% 1.0 mph NNW1.6 kmh NNW 4.0 mph6.4 kmh 29.94 in1013.9 mb 0.00 in0.0 mm 0.00 in0.0 mm 0.00 in0.0 mm
12:10 PM 57.6°F14.2°C 45.4°F7.4°C 64% Calm Calm 2.0 mph3.2 kmh 29.93 in1013.5 mb 0.00 in0.0 mm 0.00 in0.0 mm 0.00 in0.0 mm
12:00 PM 55.7°F13.2°C 46.2°F7.9°C 70% Calm Calm 3.0 mph4.8 kmh 29.94 in1013.9 mb 0.00 in0.0 mm 0.00 in0.0 mm 0.00 in0.0 mm
11:50 AM 54.9°F12.7°C 46.6°F8.1°C 74% Calm Calm 7.0 mph11.3 kmh 29.95 in1014.2 mb 0.00 in0.0 mm 0.00 in0.0 mm 0.00 in0.0 mm
11:40 AM 54.6°F12.6°C 45.9°F7.7°C 72% 2.0 mph N3.2 kmh N 4.0 mph6.4 kmh 29.94 in1013.9 mb 0.00 in0.0 mm 0.00 in0.0 mm 0.00 in0.0 mm
11:30 AM 54.3°F12.4°C 45.6°F7.6°C 72% 2.0 mph 3.2 kmh 3.0 mph4.8 kmh 29.94 in1013.9 mb 0.00 in0.0 mm 0.00 in0.0 mm 0.00 in0.0 mm
11:20 AM 53.9°F12.2°C 46.0°F7.8°C 75% Calm Calm 4.0 mph6.4 kmh 29.96 in1014.6 mb 0.00 in0.0 mm 0.00 in0.0 mm 0.00 in0.0 mm
11:10 AM 53.5°F11.9°C 46.0°F7.8°C 76% Calm Calm 3.0 mph4.8 kmh 29.96 in1014.6 mb 0.00 in0.0 mm 0.00 in0.0 mm 0.00 in0.0 mm
11:00 AM 53.6°F12.0°C 45.3°F7.4°C 74% 3.0 mph SE4.8 kmh SE 3.0 mph4.8 kmh 29.97 in1014.9 mb 0.00 in0.0 mm 0.00 in0.0 mm 0.00 in0.0 mm
10:50 AM 53.6°F12.0°C 45.3°F7.4°C 74% Calm Calm 1.0 mph1.6 kmh 29.98 in1015.2 mb 0.00 in0.0 mm 0.00 in0.0 mm 0.00 in0.0 mm
10:40 AM 53.5°F11.9°C 45.6°F7.6°C 75% Calm Calm 2.0 mph3.2 kmh 29.97 in1014.9 mb 0.00 in0.0 mm 0.00 in0.0 mm 0.00 in0.0 mm
10:30 AM 53.6°F12.0°C 45.7°F7.6°C 75% Calm Calm 2.0 mph3.2 kmh 29.98 in1015.2 mb 0.00 in0.0 mm 0.00 in0.0 mm 0.00 in0.0 mm
10:20 AM 53.6°F12.0°C 45.7°F7.6°C 75% Calm Calm 3.0 mph4.8 kmh 29.97 in1014.9 mb 0.00 in0.0 mm 0.00 in0.0 mm 0.00 in0.0 mm
10:10 AM 53.9°F12.2°C 45.6°F7.6°C 74% Calm Calm 1.0 mph1.6 kmh 29.97 in1014.9 mb 0.00 in0.0 mm 0.00 in0.0 mm 0.00 in0.0 mm
10:00 AM 53.8°F12.1°C 45.5°F7.5°C 74% Calm Calm 3.0 mph4.8 kmh 29.97 in1014.9 mb 0.00 in0.0 mm 0.00 in0.0 mm 0.00 in0.0 mm
09:50 AM 54.0°F12.2°C 45.3°F7.4°C 72% Calm Calm 2.0 mph3.2 kmh 29.96 in1014.6 mb 0.00 in0.0 mm 0.00 in0.0 mm 0.00 in0.0 mm
09:40 AM 53.8°F12.1°C 45.5°F7.5°C 74% Calm Calm 3.0 mph4.8 kmh 29.97 in1014.9 mb 0.00 in0.0 mm 0.00 in0.0 mm 0.00 in0.0 mm
09:30 AM 53.5°F11.9°C 45.2°F7.3°C 74% Calm Calm 1.0 mph1.6 kmh 29.96 in1014.6 mb 0.00 in0.0 mm 0.00 in0.0 mm 0.00 in0.0 mm
09:20 AM 53.6°F12.0°C 45.3°F7.4°C 74% Calm Calm 3.0 mph4.8 kmh 29.96 in1014.6 mb 0.00 in0.0 mm 0.00 in0.0 mm 0.00 in0.0 mm
09:10 AM 53.4°F11.9°C 45.5°F7.5°C 75% Calm Calm 2.0 mph3.2 kmh 29.95 in1014.2 mb 0.00 in0.0 mm 0.00 in0.0 mm 0.00 in0.0 mm
09:00 AM 52.4°F11.3°C 46.1°F7.8°C 79% Calm Calm 1.0 mph1.6 kmh 29.95 in1014.2 mb 0.00 in0.0 mm 0.00 in0.0 mm 0.00 in0.0 mm
08:50 AM 51.7°F10.9°C 45.8°F7.7°C 80% Calm Calm 1.0 mph1.6 kmh 29.97 in1014.9 mb 0.00 in0.0 mm 0.00 in0.0 mm 0.00 in0.0 mm
08:40 AM 51.2°F10.7°C 45.6°F7.6°C 81% Calm Calm 2.0 mph3.2 kmh 29.97 in1014.9 mb 0.00 in0.0 mm 0.00 in0.0 mm 0.00 in0.0 mm
08:30 AM 50.7°F10.4°C 45.5°F7.5°C 82% Calm Calm 1.0 mph1.6 kmh 29.98 in1015.2 mb 0.00 in0.0 mm 0.00 in0.0 mm 0.00 in0.0 mm
08:20 AM 50.2°F10.1°C 45.4°F7.4°C 83% Calm Calm -- 29.98 in1015.2 mb 0.00 in0.0 mm 0.00 in0.0 mm 0.00 in0.0 mm
08:10 AM 49.7°F9.8°C 45.2°F7.3°C 85% Calm Calm 1.0 mph1.6 kmh 29.98 in1015.2 mb 0.00 in0.0 mm 0.00 in0.0 mm 0.00 in0.0 mm
08:00 AM 49.4°F9.7°C 45.3°F7.4°C 86% Calm Calm -- 29.98 in1015.2 mb 0.00 in0.0 mm 0.00 in0.0 mm 0.00 in0.0 mm
07:50 AM 49.2°F9.6°C 45.4°F7.4°C 87% Calm Calm -- 29.99 in1015.6 mb 0.00 in0.0 mm 0.00 in0.0 mm 0.00 in0.0 mm
07:40 AM 49.0°F9.4°C 44.9°F7.2°C 86% Calm Calm 1.0 mph1.6 kmh 30.00 in1015.9 mb 0.00 in0.0 mm 0.00 in0.0 mm 0.00 in0.0 mm
07:30 AM 48.9°F9.4°C 45.1°F7.3°C 87% Calm Calm 1.0 mph1.6 kmh 30.00 in1015.9 mb 0.00 in0.0 mm 0.00 in0.0 mm 0.00 in0.0 mm
07:20 AM 48.5°F9.2°C 44.7°F7.1°C 87% Calm Calm -- 30.00 in1015.9 mb 0.00 in0.0 mm 0.00 in0.0 mm 0.00 in0.0 mm
07:10 AM 48.0°F8.9°C 44.2°F6.8°C 87% Calm Calm -- 29.99 in1015.6 mb 0.00 in0.0 mm 0.00 in0.0 mm 0.00 in0.0 mm
07:00 AM 47.5°F8.6°C 44.1°F6.7°C 88% Calm Calm -- 30.01 in1016.3 mb 0.00 in0.0 mm 0.00 in0.0 mm 0.00 in0.0 mm
06:50 AM 47.2°F8.4°C 43.8°F6.6°C 88% Calm Calm 1.0 mph1.6 kmh 30.01 in1016.3 mb 0.00 in0.0 mm 0.00 in0.0 mm 0.00 in0.0 mm
06:40 AM 47.2°F8.4°C 44.1°F6.7°C 89% Calm Calm -- 30.01 in1016.3 mb 0.00 in0.0 mm 0.00 in0.0 mm 0.00 in0.0 mm
06:30 AM 47.0°F8.3°C 44.5°F6.9°C 91% Calm Calm 1.0 mph1.6 kmh 30.01 in1016.3 mb 0.00 in0.0 mm 0.00 in0.0 mm 0.00 in0.0 mm
06:20 AM 46.9°F8.3°C 44.1°F6.7°C 90% Calm Calm -- 30.01 in1016.3 mb 0.00 in0.0 mm 0.00 in0.0 mm 0.00 in0.0 mm
06:10 AM 46.8°F8.2°C 43.7°F6.5°C 89% Calm Calm 1.0 mph1.6 kmh 30.01 in1016.3 mb 0.00 in0.0 mm 0.00 in0.0 mm 0.00 in0.0 mm
06:00 AM 46.7°F8.2°C 43.6°F6.4°C 89% Calm Calm -- 30.01 in1016.3 mb 0.00 in0.0 mm 0.00 in0.0 mm 0.00 in0.0 mm
05:50 AM 46.7°F8.2°C 43.6°F6.4°C 89% Calm Calm 2.0 mph3.2 kmh 30.02 in1016.6 mb 0.00 in0.0 mm 0.00 in0.0 mm 0.00 in0.0 mm
05:40 AM 46.7°F8.2°C 44.2°F6.8°C 91% Calm Calm 2.0 mph3.2 kmh 30.02 in1016.6 mb 0.00 in0.0 mm 0.00 in0.0 mm 0.00 in0.0 mm
05:30 AM 46.7°F8.2°C 44.2°F6.8°C 91% Calm Calm -- 30.00 in1015.9 mb 0.00 in0.0 mm 0.00 in0.0 mm 0.00 in0.0 mm
05:20 AM 46.6°F8.1°C 44.1°F6.7°C 91% Calm Calm 3.0 mph4.8 kmh 30.01 in1016.3 mb 0.00 in0.0 mm 0.00 in0.0 mm 0.00 in0.0 mm
05:10 AM 46.7°F8.2°C 44.2°F6.8°C 91% Calm Calm -- 30.02 in1016.6 mb 0.00 in0.0 mm 0.00 in0.0 mm 0.00 in0.0 mm
05:00 AM 46.8°F8.2°C 44.0°F6.7°C 90% Calm Calm -- 30.02 in1016.6 mb 0.00 in0.0 mm 0.00 in0.0 mm 0.00 in0.0 mm
04:50 AM 46.7°F8.2°C 43.9°F6.6°C 90% Calm Calm -- 30.03 in1016.9 mb 0.00 in0.0 mm 0.00 in0.0 mm 0.00 in0.0 mm
04:40 AM 46.7°F8.2°C 43.6°F6.4°C 89% Calm Calm 2.0 mph3.2 kmh 30.02 in1016.6 mb 0.00 in0.0 mm 0.00 in0.0 mm 0.00 in0.0 mm
04:30 AM 46.5°F8.1°C 43.4°F6.3°C 89% Calm Calm 1.0 mph1.6 kmh 30.03 in1016.9 mb 0.00 in0.0 mm 0.00 in0.0 mm 0.00 in0.0 mm
04:20 AM 46.6°F8.1°C 43.2°F6.2°C 88% Calm Calm -- 30.03 in1016.9 mb 0.00 in0.0 mm 0.00 in0.0 mm 0.00 in0.0 mm
04:10 AM 46.6°F8.1°C 43.2°F6.2°C 88% Calm Calm 1.0 mph1.6 kmh 30.03 in1016.9 mb 0.00 in0.0 mm 0.00 in0.0 mm 0.00 in0.0 mm
04:00 AM 46.4°F8.0°C 42.7°F5.9°C 87% Calm Calm -- 30.03 in1016.9 mb 0.00 in0.0 mm 0.00 in0.0 mm 0.00 in0.0 mm
03:50 AM 46.7°F8.2°C 42.6°F5.9°C 86% Calm Calm -- 30.03 in1016.9 mb 0.00 in0.0 mm 0.00 in0.0 mm 0.00 in0.0 mm
03:40 AM 46.7°F8.2°C 42.6°F5.9°C 86% Calm Calm -- 30.03 in1016.9 mb 0.00 in0.0 mm 0.00 in0.0 mm 0.00 in0.0 mm
03:30 AM 46.8°F8.2°C 43.0°F6.1°C 87% Calm Calm -- 30.02 in1016.6 mb 0.00 in0.0 mm 0.00 in0.0 mm 0.00 in0.0 mm
03:20 AM 46.9°F8.3°C 43.1°F6.2°C 87% Calm Calm -- 30.02 in1016.6 mb 0.00 in0.0 mm 0.00 in0.0 mm 0.00 in0.0 mm
03:10 AM 46.9°F8.3°C 42.8°F6.0°C 86% Calm Calm 1.0 mph1.6 kmh 30.02 in1016.6 mb 0.00 in0.0 mm 0.00 in0.0 mm 0.00 in0.0 mm
03:00 AM 46.9°F8.3°C 42.8°F6.0°C 86% Calm Calm -- 30.02 in1016.6 mb 0.00 in0.0 mm 0.00 in0.0 mm 0.00 in0.0 mm
02:50 AM 46.9°F8.3°C 43.1°F6.2°C 87% Calm Calm -- 30.02 in1016.6 mb 0.00 in0.0 mm 0.00 in0.0 mm 0.00 in0.0 mm
02:40 AM 47.0°F8.3°C 42.9°F6.1°C 86% Calm Calm -- 30.02 in1016.6 mb 0.00 in0.0 mm 0.00 in0.0 mm 0.00 in0.0 mm
02:30 AM 47.0°F8.3°C 42.9°F6.1°C 86% Calm Calm 1.0 mph1.6 kmh 30.02 in1016.6 mb 0.00 in0.0 mm 0.00 in0.0 mm 0.00 in0.0 mm
02:20 AM 47.2°F8.4°C 43.4°F6.3°C 87% Calm Calm -- 30.03 in1016.9 mb 0.00 in0.0 mm 0.00 in0.0 mm 0.00 in0.0 mm
02:10 AM 47.2°F8.4°C 43.1°F6.2°C 86% Calm Calm 2.0 mph3.2 kmh 30.02 in1016.6 mb 0.00 in0.0 mm 0.00 in0.0 mm 0.00 in0.0 mm
02:00 AM 47.2°F8.4°C 43.1°F6.2°C 86% Calm Calm 1.0 mph1.6 kmh 30.02 in1016.6 mb 0.00 in0.0 mm 0.00 in0.0 mm 0.00 in0.0 mm
01:50 AM 47.2°F8.4°C 43.1°F6.2°C 86% Calm Calm 1.0 mph1.6 kmh 30.04 in1017.3 mb 0.00 in0.0 mm 0.00 in0.0 mm 0.00 in0.0 mm
01:40 AM 47.2°F8.4°C 42.8°F6.0°C 85% Calm Calm 1.0 mph1.6 kmh 30.05 in1017.6 mb 0.00 in0.0 mm 0.00 in0.0 mm 0.00 in0.0 mm
01:30 AM 47.1°F8.4°C 43.0°F6.1°C 86% Calm Calm -- 30.05 in1017.6 mb 0.00 in0.0 mm 0.00 in0.0 mm 0.00 in0.0 mm
01:20 AM 47.1°F8.4°C 43.0°F6.1°C 86% Calm Calm -- 30.05 in1017.6 mb 0.00 in0.0 mm 0.00 in0.0 mm 0.00 in0.0 mm
01:10 AM 47.0°F8.3°C 42.9°F6.1°C 86% Calm Calm 1.0 mph1.6 kmh 30.05 in1017.6 mb 0.00 in0.0 mm 0.00 in0.0 mm 0.00 in0.0 mm
01:00 AM 46.9°F8.3°C 42.8°F6.0°C 86% Calm Calm 2.0 mph3.2 kmh 30.05 in1017.6 mb 0.00 in0.0 mm 0.00 in0.0 mm 0.00 in0.0 mm
12:50 AM 46.7°F8.2°C 42.6°F5.9°C 86% Calm Calm 2.0 mph3.2 kmh 30.06 in1017.9 mb 0.00 in0.0 mm 0.00 in0.0 mm 0.00 in0.0 mm
12:40 AM 46.7°F8.2°C 42.6°F5.9°C 86% Calm Calm 4.0 mph6.4 kmh 30.06 in1017.9 mb 0.00 in0.0 mm 0.00 in0.0 mm 0.00 in0.0 mm
12:30 AM 46.7°F8.2°C 42.3°F5.7°C 85% 2.0 mph SE3.2 kmh SE 4.0 mph6.4 kmh 30.05 in1017.6 mb 0.00 in0.0 mm 0.00 in0.0 mm 0.00 in0.0 mm
12:20 AM 46.9°F8.3°C 42.5°F5.8°C 85% Calm Calm 1.0 mph1.6 kmh 30.05 in1017.6 mb 0.00 in0.0 mm 0.00 in0.0 mm 0.00 in0.0 mm
12:10 AM 46.8°F8.2°C 42.7°F5.9°C 86% Calm Calm -- 30.06 in1017.9 mb 0.00 in0.0 mm 0.00 in0.0 mm 0.00 in0.0 mm
12:00 AM 46.6°F8.1°C 42.2°F5.7°C 85% Calm Calm 3.0 mph4.8 kmh 30.04 in1017.3 mb 0.00 in0.0 mm 0.00 in0.0 mm 0.00 in0.0 mm